<?xml version="1.0" encoding="utf-8"?>
<gpx xmlns:xsi="http://www.w3.org/2001/XMLSchema-instance" xmlns:xsd="http://www.w3.org/2001/XMLSchema" version="1.1" creator="Shapelink.com" xmlns="http://www.topografix.com/GPX/1/1" xmlns:gpxtpx="http://www.garmin.com/xmlschemas/TrackPointExtension/v1">
  <metadata>
    <name>Alpine skiing 2.28 km, 2016-01-21</name>
    <desc></desc>
    <author><name>Stefan Östlund</name></author> 
    <time>2016-01-21T19:57:22Z</time>
  </metadata>
  <trk>
    <name>Alpine skiing 2.28 km, 2016-01-21</name>
    <trkseg>
      <trkpt lat="60.078093196598" lon="15.890464022748">
        <ele>178.4</ele>
        <time>2016-01-21T19:57:22Z</time>
      </trkpt>
      <trkpt lat="60.078221020573" lon="15.890821678421">
        <ele>176.2</ele>
        <time>2016-01-21T19:58:28Z</time>
      </trkpt>
      <trkpt lat="60.078267623937" lon="15.890900133005">
        <ele>175.2</ele>
        <time>2016-01-21T19:58:29Z</time>
      </trkpt>
      <trkpt lat="60.078317999156" lon="15.890995854303">
        <ele>173.8</ele>
        <time>2016-01-21T19:58:30Z</time>
      </trkpt>
      <trkpt lat="60.078364099606" lon="15.891090905049">
        <ele>172.2</ele>
        <time>2016-01-21T19:58:31Z</time>
      </trkpt>
      <trkpt lat="60.078407769305" lon="15.891209173658">
        <ele>170.4</ele>
        <time>2016-01-21T19:58:32Z</time>
      </trkpt>
      <trkpt lat="60.078440374896" lon="15.89133892547">
        <ele>168.4</ele>
        <time>2016-01-21T19:58:33Z</time>
      </trkpt>
      <trkpt lat="60.07843501048" lon="15.891485441082">
        <ele>166.2</ele>
        <time>2016-01-21T19:58:34Z</time>
      </trkpt>
      <trkpt lat="60.07845596523" lon="15.891610750487">
        <ele>164</ele>
        <time>2016-01-21T19:58:35Z</time>
      </trkpt>
      <trkpt lat="60.078476333247" lon="15.891741424308">
        <ele>161.4</ele>
        <time>2016-01-21T19:58:36Z</time>
      </trkpt>
      <trkpt lat="60.078481865301" lon="15.891870757025">
        <ele>158.8</ele>
        <time>2016-01-21T19:58:37Z</time>
      </trkpt>
      <trkpt lat="60.078493599961" lon="15.892010902393">
        <ele>156.4</ele>
        <time>2016-01-21T19:58:38Z</time>
      </trkpt>
      <trkpt lat="60.078497623273" lon="15.892155657806">
        <ele>154.2</ele>
        <time>2016-01-21T19:58:39Z</time>
      </trkpt>
      <trkpt lat="60.078503406784" lon="15.892304939445">
        <ele>152</ele>
        <time>2016-01-21T19:58:40Z</time>
      </trkpt>
      <trkpt lat="60.07850625663" lon="15.892443240795">
        <ele>149.8</ele>
        <time>2016-01-21T19:58:41Z</time>
      </trkpt>
      <trkpt lat="60.078493180866" lon="15.892572154417">
        <ele>147.6</ele>
        <time>2016-01-21T19:58:42Z</time>
      </trkpt>
      <trkpt lat="60.078483206405" lon="15.892706683912">
        <ele>145.4</ele>
        <time>2016-01-21T19:58:43Z</time>
      </trkpt>
      <trkpt lat="60.078500137843" lon="15.892840794312">
        <ele>143.2</ele>
        <time>2016-01-21T19:58:44Z</time>
      </trkpt>
      <trkpt lat="60.078537856393" lon="15.892962583319">
        <ele>141.6</ele>
        <time>2016-01-21T19:58:45Z</time>
      </trkpt>
      <trkpt lat="60.078603821946" lon="15.893048162518">
        <ele>140</ele>
        <time>2016-01-21T19:58:46Z</time>
      </trkpt>
      <trkpt lat="60.078669536042" lon="15.893117313193">
        <ele>138</ele>
        <time>2016-01-21T19:58:47Z</time>
      </trkpt>
      <trkpt lat="60.078733154663" lon="15.893204904048">
        <ele>135.8</ele>
        <time>2016-01-21T19:58:48Z</time>
      </trkpt>
      <trkpt lat="60.078800042225" lon="15.893304313382">
        <ele>133.8</ele>
        <time>2016-01-21T19:58:49Z</time>
      </trkpt>
      <trkpt lat="60.078865923959" lon="15.893408081304">
        <ele>132</ele>
        <time>2016-01-21T19:58:50Z</time>
      </trkpt>
      <trkpt lat="60.078932811521" lon="15.893496510349">
        <ele>130.6</ele>
        <time>2016-01-21T19:58:51Z</time>
      </trkpt>
      <trkpt lat="60.079002548929" lon="15.89354252698">
        <ele>129.2</ele>
        <time>2016-01-21T19:58:52Z</time>
      </trkpt>
      <trkpt lat="60.079074717088" lon="15.893554010183">
        <ele>128.2</ele>
        <time>2016-01-21T19:58:53Z</time>
      </trkpt>
      <trkpt lat="60.079198014837" lon="15.893555518925">
        <ele>127</ele>
        <time>2016-01-21T19:58:55Z</time>
      </trkpt>
      <trkpt lat="60.079248725332" lon="15.893543532808">
        <ele>126.6</ele>
        <time>2016-01-21T19:58:56Z</time>
      </trkpt>
      <trkpt lat="60.079318043645" lon="15.893500868937">
        <ele>126</ele>
        <time>2016-01-21T19:58:58Z</time>
      </trkpt>
      <trkpt lat="60.079460703583" lon="15.893331554557">
        <ele>125.2</ele>
        <time>2016-01-21T19:59:07Z</time>
      </trkpt>
      <trkpt lat="60.079488112396" lon="15.893282101347">
        <ele>125.2</ele>
        <time>2016-01-21T19:59:11Z</time>
      </trkpt>
      <trkpt lat="60.078072493305" lon="15.890345418863">
        <ele>179.2</ele>
        <time>2016-01-21T20:01:20Z</time>
      </trkpt>
      <trkpt lat="60.078033349832" lon="15.89048313348">
        <ele>178.4</ele>
        <time>2016-01-21T20:01:23Z</time>
      </trkpt>
      <trkpt lat="60.078029913253" lon="15.89051079375">
        <ele>178.2</ele>
        <time>2016-01-21T20:01:24Z</time>
      </trkpt>
      <trkpt lat="60.078053969306" lon="15.890536358545">
        <ele>177.6</ele>
        <time>2016-01-21T20:01:27Z</time>
      </trkpt>
      <trkpt lat="60.07812236561" lon="15.890634762051">
        <ele>176</ele>
        <time>2016-01-21T20:02:21Z</time>
      </trkpt>
      <trkpt lat="60.078198473262" lon="15.890787815545">
        <ele>175</ele>
        <time>2016-01-21T20:02:24Z</time>
      </trkpt>
      <trkpt lat="60.078265444643" lon="15.89091061038">
        <ele>172.8</ele>
        <time>2016-01-21T20:02:26Z</time>
      </trkpt>
      <trkpt lat="60.078301151537" lon="15.890989316421">
        <ele>171.4</ele>
        <time>2016-01-21T20:02:27Z</time>
      </trkpt>
      <trkpt lat="60.078316406595" lon="15.891069698842">
        <ele>170.2</ele>
        <time>2016-01-21T20:02:28Z</time>
      </trkpt>
      <trkpt lat="60.078327554522" lon="15.89114781815">
        <ele>168.6</ele>
        <time>2016-01-21T20:02:29Z</time>
      </trkpt>
      <trkpt lat="60.078334846775" lon="15.891221075956">
        <ele>167</ele>
        <time>2016-01-21T20:02:30Z</time>
      </trkpt>
      <trkpt lat="60.078321268097" lon="15.891280335989">
        <ele>165.4</ele>
        <time>2016-01-21T20:02:31Z</time>
      </trkpt>
      <trkpt lat="60.078304336659" lon="15.891322245489">
        <ele>164</ele>
        <time>2016-01-21T20:02:32Z</time>
      </trkpt>
      <trkpt lat="60.078301570632" lon="15.89135149832">
        <ele>162.4</ele>
        <time>2016-01-21T20:02:33Z</time>
      </trkpt>
      <trkpt lat="60.078304755754" lon="15.891366334283">
        <ele>160.8</ele>
        <time>2016-01-21T20:02:34Z</time>
      </trkpt>
      <trkpt lat="60.078304085202" lon="15.891373207441">
        <ele>159.8</ele>
        <time>2016-01-21T20:02:35Z</time>
      </trkpt>
      <trkpt lat="60.07831095836" lon="15.891401454444">
        <ele>156.6</ele>
        <time>2016-01-21T20:03:00Z</time>
      </trkpt>
      <trkpt lat="60.078312467102" lon="15.891405310118">
        <ele>156.2</ele>
        <time>2016-01-21T20:03:02Z</time>
      </trkpt>
      <trkpt lat="60.078368039099" lon="15.891540342527">
        <ele>154.6</ele>
        <time>2016-01-21T20:03:43Z</time>
      </trkpt>
      <trkpt lat="60.078370302212" lon="15.891592729402">
        <ele>152.8</ele>
        <time>2016-01-21T20:03:46Z</time>
      </trkpt>
      <trkpt lat="60.078412966083" lon="15.89165995224">
        <ele>151</ele>
        <time>2016-01-21T20:04:25Z</time>
      </trkpt>
      <trkpt lat="60.078464011854" lon="15.891756595547">
        <ele>149.8</ele>
        <time>2016-01-21T20:04:31Z</time>
      </trkpt>
      <trkpt lat="60.07845428885" lon="15.891791045156">
        <ele>149.6</ele>
        <time>2016-01-21T20:04:33Z</time>
      </trkpt>
      <trkpt lat="60.078439117611" lon="15.891829769534">
        <ele>149.2</ele>
        <time>2016-01-21T20:04:36Z</time>
      </trkpt>
      <trkpt lat="60.07842579039" lon="15.892027247098">
        <ele>147.8</ele>
        <time>2016-01-21T20:05:39Z</time>
      </trkpt>
      <trkpt lat="60.078440626353" lon="15.892063708363">
        <ele>147.4</ele>
        <time>2016-01-21T20:05:40Z</time>
      </trkpt>
      <trkpt lat="60.078478177265" lon="15.892106456053">
        <ele>146</ele>
        <time>2016-01-21T20:05:42Z</time>
      </trkpt>
      <trkpt lat="60.078494438151" lon="15.892135122151">
        <ele>145.4</ele>
        <time>2016-01-21T20:05:43Z</time>
      </trkpt>
      <trkpt lat="60.07849619835" lon="15.892163955887">
        <ele>144.8</ele>
        <time>2016-01-21T20:05:44Z</time>
      </trkpt>
      <trkpt lat="60.078481613844" lon="15.892177869841">
        <ele>143.4</ele>
        <time>2016-01-21T20:05:47Z</time>
      </trkpt>
      <trkpt lat="60.078487900269" lon="15.892285577256">
        <ele>142</ele>
        <time>2016-01-21T20:07:07Z</time>
      </trkpt>
      <trkpt lat="60.078489409011" lon="15.892446006822">
        <ele>140.8</ele>
        <time>2016-01-21T20:07:11Z</time>
      </trkpt>
      <trkpt lat="60.078481027111" lon="15.892471236341">
        <ele>139.6</ele>
        <time>2016-01-21T20:07:13Z</time>
      </trkpt>
      <trkpt lat="60.078478763998" lon="15.892474253825">
        <ele>139.4</ele>
        <time>2016-01-21T20:07:14Z</time>
      </trkpt>
      <trkpt lat="60.078687389489" lon="15.892916231412">
        <ele>137.4</ele>
        <time>2016-01-21T20:07:53Z</time>
      </trkpt>
      <trkpt lat="60.078745056961" lon="15.893042379007">
        <ele>136.2</ele>
        <time>2016-01-21T20:07:54Z</time>
      </trkpt>
      <trkpt lat="60.078810687238" lon="15.893189313714">
        <ele>134.6</ele>
        <time>2016-01-21T20:07:55Z</time>
      </trkpt>
      <trkpt lat="60.078876233696" lon="15.893330129634">
        <ele>133</ele>
        <time>2016-01-21T20:07:56Z</time>
      </trkpt>
      <trkpt lat="60.078945132914" lon="15.893440100162">
        <ele>131.4</ele>
        <time>2016-01-21T20:07:57Z</time>
      </trkpt>
      <trkpt lat="60.079022414032" lon="15.893494498693">
        <ele>129.4</ele>
        <time>2016-01-21T20:07:58Z</time>
      </trkpt>
      <trkpt lat="60.079096761485" lon="15.893508915561">
        <ele>127.8</ele>
        <time>2016-01-21T20:07:59Z</time>
      </trkpt>
      <trkpt lat="60.079231374799" lon="15.893475555599">
        <ele>126.2</ele>
        <time>2016-01-21T20:08:01Z</time>
      </trkpt>
      <trkpt lat="60.079402784654" lon="15.893311437997">
        <ele>125.2</ele>
        <time>2016-01-21T20:08:06Z</time>
      </trkpt>
      <trkpt lat="60.079478892306" lon="15.893140698694">
        <ele>124.6</ele>
        <time>2016-01-21T20:08:18Z</time>
      </trkpt>
      <trkpt lat="60.079345452458" lon="15.892870969152">
        <ele>126.2</ele>
        <time>2016-01-21T20:08:25Z</time>
      </trkpt>
      <trkpt lat="60.079293903773" lon="15.892763177918">
        <ele>127.8</ele>
        <time>2016-01-21T20:08:28Z</time>
      </trkpt>
      <trkpt lat="60.07926565677" lon="15.89268673499">
        <ele>129.2</ele>
        <time>2016-01-21T20:08:30Z</time>
      </trkpt>
      <trkpt lat="60.079232632084" lon="15.892618254867">
        <ele>130.4</ele>
        <time>2016-01-21T20:08:32Z</time>
      </trkpt>
      <trkpt lat="60.079198936846" lon="15.892553881875">
        <ele>131.6</ele>
        <time>2016-01-21T20:08:34Z</time>
      </trkpt>
      <trkpt lat="60.079171360395" lon="15.892470398151">
        <ele>132.8</ele>
        <time>2016-01-21T20:08:36Z</time>
      </trkpt>
      <trkpt lat="60.079137748976" lon="15.892390770101">
        <ele>133.8</ele>
        <time>2016-01-21T20:08:38Z</time>
      </trkpt>
      <trkpt lat="60.078055729505" lon="15.8903473467">
        <ele>179</ele>
        <time>2016-01-21T20:09:58Z</time>
      </trkpt>
      <trkpt lat="60.078066877432" lon="15.89040853457">
        <ele>178</ele>
        <time>2016-01-21T20:10:02Z</time>
      </trkpt>
      <trkpt lat="60.078066123061" lon="15.890410378588">
        <ele>177.8</ele>
        <time>2016-01-21T20:10:03Z</time>
      </trkpt>
      <trkpt lat="60.078162682549" lon="15.890692513342">
        <ele>176.2</ele>
        <time>2016-01-21T20:10:15Z</time>
      </trkpt>
      <trkpt lat="60.078207609533" lon="15.890867108319">
        <ele>174.4</ele>
        <time>2016-01-21T20:10:17Z</time>
      </trkpt>
      <trkpt lat="60.078237281459" lon="15.890962075246">
        <ele>173.2</ele>
        <time>2016-01-21T20:10:18Z</time>
      </trkpt>
      <trkpt lat="60.078263600625" lon="15.891057545087">
        <ele>171.8</ele>
        <time>2016-01-21T20:10:19Z</time>
      </trkpt>
      <trkpt lat="60.078285896479" lon="15.891155613317">
        <ele>169.8</ele>
        <time>2016-01-21T20:10:20Z</time>
      </trkpt>
      <trkpt lat="60.078320597545" lon="15.891246640751">
        <ele>167.8</ele>
        <time>2016-01-21T20:10:21Z</time>
      </trkpt>
      <trkpt lat="60.078344988874" lon="15.891340434212">
        <ele>166.2</ele>
        <time>2016-01-21T20:10:22Z</time>
      </trkpt>
      <trkpt lat="60.07835538243" lon="15.891443363944">
        <ele>164.4</ele>
        <time>2016-01-21T20:10:23Z</time>
      </trkpt>
      <trkpt lat="60.078387988021" lon="15.891545455486">
        <ele>162</ele>
        <time>2016-01-21T20:10:24Z</time>
      </trkpt>
      <trkpt lat="60.078406009106" lon="15.891656431842">
        <ele>159.8</ele>
        <time>2016-01-21T20:10:25Z</time>
      </trkpt>
      <trkpt lat="60.078426209485" lon="15.891760283583">
        <ele>157.6</ele>
        <time>2016-01-21T20:10:26Z</time>
      </trkpt>
      <trkpt lat="60.078446996597" lon="15.891859022365">
        <ele>155.2</ele>
        <time>2016-01-21T20:10:27Z</time>
      </trkpt>
      <trkpt lat="60.078416151205" lon="15.891975698413">
        <ele>152.4</ele>
        <time>2016-01-21T20:10:28Z</time>
      </trkpt>
      <trkpt lat="60.078361417398" lon="15.892058846861">
        <ele>150.2</ele>
        <time>2016-01-21T20:10:29Z</time>
      </trkpt>
      <trkpt lat="60.078321435735" lon="15.892112071926">
        <ele>148.8</ele>
        <time>2016-01-21T20:10:30Z</time>
      </trkpt>
      <trkpt lat="60.078322860658" lon="15.892174517081">
        <ele>147.6</ele>
        <time>2016-01-21T20:10:31Z</time>
      </trkpt>
      <trkpt lat="60.078352951679" lon="15.892225562852">
        <ele>146.6</ele>
        <time>2016-01-21T20:10:32Z</time>
      </trkpt>
      <trkpt lat="60.078401734337" lon="15.892246601421">
        <ele>145.6</ele>
        <time>2016-01-21T20:10:33Z</time>
      </trkpt>
      <trkpt lat="60.078452528651" lon="15.892264706325">
        <ele>145</ele>
        <time>2016-01-21T20:10:34Z</time>
      </trkpt>
      <trkpt lat="60.078512878331" lon="15.892294881165">
        <ele>143.6</ele>
        <time>2016-01-21T20:10:36Z</time>
      </trkpt>
      <trkpt lat="60.078508603562" lon="15.892292450414">
        <ele>142</ele>
        <time>2016-01-21T20:10:38Z</time>
      </trkpt>
      <trkpt lat="60.078501730404" lon="15.892287840369">
        <ele>141</ele>
        <time>2016-01-21T20:10:42Z</time>
      </trkpt>
      <trkpt lat="60.078474992143" lon="15.892643735843">
        <ele>139.4</ele>
        <time>2016-01-21T20:10:51Z</time>
      </trkpt>
      <trkpt lat="60.078522601335" lon="15.89283425643">
        <ele>137.8</ele>
        <time>2016-01-21T20:10:53Z</time>
      </trkpt>
      <trkpt lat="60.078548249949" lon="15.892938611085">
        <ele>136.4</ele>
        <time>2016-01-21T20:10:54Z</time>
      </trkpt>
      <trkpt lat="60.078576916047" lon="15.893045983224">
        <ele>135.2</ele>
        <time>2016-01-21T20:10:55Z</time>
      </trkpt>
      <trkpt lat="60.078607593801" lon="15.893149918784">
        <ele>134</ele>
        <time>2016-01-21T20:10:56Z</time>
      </trkpt>
      <trkpt lat="60.078656376459" lon="15.893229463015">
        <ele>132.4</ele>
        <time>2016-01-21T20:10:57Z</time>
      </trkpt>
      <trkpt lat="60.078713624836" lon="15.893269528497">
        <ele>130.4</ele>
        <time>2016-01-21T20:10:58Z</time>
      </trkpt>
      <trkpt lat="60.07876106639" lon="15.893298278414">
        <ele>129</ele>
        <time>2016-01-21T20:10:59Z</time>
      </trkpt>
      <trkpt lat="60.078797360017" lon="15.893326106322">
        <ele>127.2</ele>
        <time>2016-01-21T20:11:01Z</time>
      </trkpt>
      <trkpt lat="60.078793420524" lon="15.89331118654">
        <ele>125.8</ele>
        <time>2016-01-21T20:11:03Z</time>
      </trkpt>
      <trkpt lat="60.078791325049" lon="15.893305654486">
        <ele>125</ele>
        <time>2016-01-21T20:11:06Z</time>
      </trkpt>
      <trkpt lat="60.07808045611" lon="15.890276771102">
        <ele>178.8</ele>
        <time>2016-01-21T20:14:16Z</time>
      </trkpt>
      <trkpt lat="60.078073582952" lon="15.890296468567">
        <ele>178.6</ele>
        <time>2016-01-21T20:14:17Z</time>
      </trkpt>
      <trkpt lat="60.07809889629" lon="15.890517415451">
        <ele>177.4</ele>
        <time>2016-01-21T20:15:52Z</time>
      </trkpt>
      <trkpt lat="60.078157988685" lon="15.89058623085">
        <ele>176.8</ele>
        <time>2016-01-21T20:15:54Z</time>
      </trkpt>
      <trkpt lat="60.078177099417" lon="15.890734841937">
        <ele>175.8</ele>
        <time>2016-01-21T20:15:56Z</time>
      </trkpt>
      <trkpt lat="60.07820199366" lon="15.89080080749">
        <ele>175</ele>
        <time>2016-01-21T20:15:57Z</time>
      </trkpt>
      <trkpt lat="60.078237030002" lon="15.890863839378">
        <ele>174</ele>
        <time>2016-01-21T20:15:58Z</time>
      </trkpt>
      <trkpt lat="60.078268797403" lon="15.890934498795">
        <ele>173</ele>
        <time>2016-01-21T20:15:59Z</time>
      </trkpt>
      <trkpt lat="60.078287153764" lon="15.891008762429">
        <ele>171.8</ele>
        <time>2016-01-21T20:16:00Z</time>
      </trkpt>
      <trkpt lat="60.078303247012" lon="15.891069363566">
        <ele>170.2</ele>
        <time>2016-01-21T20:16:01Z</time>
      </trkpt>
      <trkpt lat="60.078313389111" lon="15.891126276667">
        <ele>168.4</ele>
        <time>2016-01-21T20:16:02Z</time>
      </trkpt>
      <trkpt lat="60.078325459047" lon="15.891165923054">
        <ele>166.8</ele>
        <time>2016-01-21T20:16:03Z</time>
      </trkpt>
      <trkpt lat="60.078339875915" lon="15.891185788157">
        <ele>165.6</ele>
        <time>2016-01-21T20:16:04Z</time>
      </trkpt>
      <trkpt lat="60.078355214792" lon="15.891213029332">
        <ele>164.4</ele>
        <time>2016-01-21T20:16:05Z</time>
      </trkpt>
      <trkpt lat="60.078360830665" lon="15.891237755937">
        <ele>163.2</ele>
        <time>2016-01-21T20:16:06Z</time>
      </trkpt>
      <trkpt lat="60.078357477905" lon="15.891235073729">
        <ele>161.6</ele>
        <time>2016-01-21T20:16:08Z</time>
      </trkpt>
      <trkpt lat="60.078351610575" lon="15.891229374037">
        <ele>160.2</ele>
        <time>2016-01-21T20:16:10Z</time>
      </trkpt>
      <trkpt lat="60.07808380887" lon="15.890257325094">
        <ele>178.4</ele>
        <time>2016-01-21T20:30:06Z</time>
      </trkpt>
      <trkpt lat="60.07806955964" lon="15.890306945942">
        <ele>178</ele>
        <time>2016-01-21T20:30:09Z</time>
      </trkpt>
      <trkpt lat="60.078095124435" lon="15.890438457953">
        <ele>181.8</ele>
        <time>2016-01-21T20:35:04Z</time>
      </trkpt>
      <trkpt lat="60.078125466913" lon="15.890525964989">
        <ele>180.6</ele>
        <time>2016-01-21T20:35:05Z</time>
      </trkpt>
      <trkpt lat="60.078177267055" lon="15.89060886198">
        <ele>179.2</ele>
        <time>2016-01-21T20:35:06Z</time>
      </trkpt>
      <trkpt lat="60.078214231234" lon="15.89068346089">
        <ele>178</ele>
        <time>2016-01-21T20:35:07Z</time>
      </trkpt>
      <trkpt lat="60.078250441042" lon="15.890763424216">
        <ele>176.6</ele>
        <time>2016-01-21T20:35:08Z</time>
      </trkpt>
      <trkpt lat="60.078297714958" lon="15.890851182709">
        <ele>175</ele>
        <time>2016-01-21T20:35:09Z</time>
      </trkpt>
      <trkpt lat="60.078328895626" lon="15.890952016966">
        <ele>173.4</ele>
        <time>2016-01-21T20:35:10Z</time>
      </trkpt>
      <trkpt lat="60.078348760729" lon="15.891065424073">
        <ele>171.6</ele>
        <time>2016-01-21T20:35:11Z</time>
      </trkpt>
      <trkpt lat="60.078392178971" lon="15.891167599434">
        <ele>169.6</ele>
        <time>2016-01-21T20:35:12Z</time>
      </trkpt>
      <trkpt lat="60.078425036019" lon="15.891259548877">
        <ele>167.6</ele>
        <time>2016-01-21T20:35:13Z</time>
      </trkpt>
      <trkpt lat="60.078429562245" lon="15.891363065342">
        <ele>165.4</ele>
        <time>2016-01-21T20:35:14Z</time>
      </trkpt>
      <trkpt lat="60.078452277194" lon="15.891463061409">
        <ele>162.6</ele>
        <time>2016-01-21T20:35:15Z</time>
      </trkpt>
      <trkpt lat="60.078479099274" lon="15.891573534851">
        <ele>160</ele>
        <time>2016-01-21T20:35:16Z</time>
      </trkpt>
      <trkpt lat="60.078483876957" lon="15.891690043261">
        <ele>157.4</ele>
        <time>2016-01-21T20:35:17Z</time>
      </trkpt>
      <trkpt lat="60.078496952721" lon="15.891801019617">
        <ele>154.8</ele>
        <time>2016-01-21T20:35:18Z</time>
      </trkpt>
      <trkpt lat="60.078495611617" lon="15.891899926037">
        <ele>152.6</ele>
        <time>2016-01-21T20:35:19Z</time>
      </trkpt>
      <trkpt lat="60.078500640757" lon="15.891998664819">
        <ele>150.8</ele>
        <time>2016-01-21T20:35:20Z</time>
      </trkpt>
      <trkpt lat="60.078516566367" lon="15.892099247619">
        <ele>149.2</ele>
        <time>2016-01-21T20:35:21Z</time>
      </trkpt>
      <trkpt lat="60.078530396502" lon="15.892202847903">
        <ele>147.8</ele>
        <time>2016-01-21T20:35:22Z</time>
      </trkpt>
      <trkpt lat="60.078530145045" lon="15.892317344657">
        <ele>146.4</ele>
        <time>2016-01-21T20:35:23Z</time>
      </trkpt>
      <trkpt lat="60.078535174185" lon="15.892432511963">
        <ele>144.6</ele>
        <time>2016-01-21T20:35:24Z</time>
      </trkpt>
      <trkpt lat="60.078538443126" lon="15.892538040084">
        <ele>142.8</ele>
        <time>2016-01-21T20:35:25Z</time>
      </trkpt>
      <trkpt lat="60.078545483922" lon="15.892629821889">
        <ele>141.6</ele>
        <time>2016-01-21T20:35:26Z</time>
      </trkpt>
      <trkpt lat="60.078564510835" lon="15.8927278063">
        <ele>140.2</ele>
        <time>2016-01-21T20:35:27Z</time>
      </trkpt>
      <trkpt lat="60.078578424789" lon="15.89283006548">
        <ele>139</ele>
        <time>2016-01-21T20:35:28Z</time>
      </trkpt>
      <trkpt lat="60.07859175201" lon="15.892931821746">
        <ele>137.6</ele>
        <time>2016-01-21T20:35:29Z</time>
      </trkpt>
      <trkpt lat="60.078611784751" lon="15.893038271876">
        <ele>135.8</ele>
        <time>2016-01-21T20:35:30Z</time>
      </trkpt>
      <trkpt lat="60.078638271555" lon="15.893138100305">
        <ele>134.4</ele>
        <time>2016-01-21T20:35:31Z</time>
      </trkpt>
      <trkpt lat="60.078671212422" lon="15.893223428047">
        <ele>132.8</ele>
        <time>2016-01-21T20:35:32Z</time>
      </trkpt>
      <trkpt lat="60.078714463026" lon="15.893298529871">
        <ele>131</ele>
        <time>2016-01-21T20:35:33Z</time>
      </trkpt>
      <trkpt lat="60.07875352268" lon="15.893378996111">
        <ele>129.4</ele>
        <time>2016-01-21T20:35:34Z</time>
      </trkpt>
      <trkpt lat="60.078801467148" lon="15.893423420181">
        <ele>128.2</ele>
        <time>2016-01-21T20:35:35Z</time>
      </trkpt>
      <trkpt lat="60.078850836539" lon="15.893434568108">
        <ele>127.2</ele>
        <time>2016-01-21T20:35:36Z</time>
      </trkpt>
      <trkpt lat="60.078933984987" lon="15.893444207293">
        <ele>125.6</ele>
        <time>2016-01-21T20:35:38Z</time>
      </trkpt>
      <trkpt lat="60.07906952031" lon="15.893474465952">
        <ele>124.6</ele>
        <time>2016-01-21T20:35:43Z</time>
      </trkpt>
      <trkpt lat="60.07912567904" lon="15.893480920015">
        <ele>124.4</ele>
        <time>2016-01-21T20:35:46Z</time>
      </trkpt>
      <trkpt lat="60.079218634311" lon="15.893468347165">
        <ele>124.2</ele>
        <time>2016-01-21T20:35:50Z</time>
      </trkpt>
      <trkpt lat="60.079257526327" lon="15.893417385213">
        <ele>124.2</ele>
        <time>2016-01-21T20:35:52Z</time>
      </trkpt>
      <trkpt lat="60.079447292543" lon="15.893303307554">
        <ele>124.4</ele>
        <time>2016-01-21T20:36:02Z</time>
      </trkpt>
      <trkpt lat="60.079484256722" lon="15.893237509639">
        <ele>124.2</ele>
        <time>2016-01-21T20:36:08Z</time>
      </trkpt>
      <trkpt lat="60.078118342298" lon="15.890328235968">
        <ele>178.8</ele>
        <time>2016-01-21T20:37:53Z</time>
      </trkpt>
      <trkpt lat="60.078116582099" lon="15.890347179062">
        <ele>178.6</ele>
        <time>2016-01-21T20:37:54Z</time>
      </trkpt>
      <trkpt lat="60.078139464686" lon="15.890568461222">
        <ele>181</ele>
        <time>2016-01-21T20:41:16Z</time>
      </trkpt>
      <trkpt lat="60.078176177408" lon="15.890662589959">
        <ele>179.4</ele>
        <time>2016-01-21T20:41:17Z</time>
      </trkpt>
      <trkpt lat="60.078200652556" lon="15.890765184415">
        <ele>178</ele>
        <time>2016-01-21T20:41:18Z</time>
      </trkpt>
      <trkpt lat="60.078240131305" lon="15.8908586426">
        <ele>176.4</ele>
        <time>2016-01-21T20:41:19Z</time>
      </trkpt>
      <trkpt lat="60.078277011665" lon="15.890952184604">
        <ele>174.4</ele>
        <time>2016-01-21T20:41:20Z</time>
      </trkpt>
      <trkpt lat="60.078301654451" lon="15.891057628906">
        <ele>172.6</ele>
        <time>2016-01-21T20:41:21Z</time>
      </trkpt>
      <trkpt lat="60.078344905055" lon="15.891167767072">
        <ele>170.4</ele>
        <time>2016-01-21T20:41:22Z</time>
      </trkpt>
      <trkpt lat="60.078396789016" lon="15.89127270846">
        <ele>168.2</ele>
        <time>2016-01-21T20:41:23Z</time>
      </trkpt>
      <trkpt lat="60.07841070297" lon="15.89138502592">
        <ele>165.6</ele>
        <time>2016-01-21T20:41:24Z</time>
      </trkpt>
      <trkpt lat="60.078417659947" lon="15.891499690312">
        <ele>162.6</ele>
        <time>2016-01-21T20:41:25Z</time>
      </trkpt>
      <trkpt lat="60.078453618298" lon="15.891593483773">
        <ele>159.8</ele>
        <time>2016-01-21T20:41:26Z</time>
      </trkpt>
      <trkpt lat="60.078474656867" lon="15.891685014121">
        <ele>157.8</ele>
        <time>2016-01-21T20:41:27Z</time>
      </trkpt>
      <trkpt lat="60.078490247201" lon="15.891780148686">
        <ele>155.6</ele>
        <time>2016-01-21T20:41:28Z</time>
      </trkpt>
      <trkpt lat="60.078505837535" lon="15.891878216916">
        <ele>153.2</ele>
        <time>2016-01-21T20:41:29Z</time>
      </trkpt>
      <trkpt lat="60.078506005173" lon="15.891980057001">
        <ele>151.2</ele>
        <time>2016-01-21T20:41:30Z</time>
      </trkpt>
      <trkpt lat="60.078515979634" lon="15.892081142715">
        <ele>149.8</ele>
        <time>2016-01-21T20:41:31Z</time>
      </trkpt>
      <trkpt lat="60.078540454782" lon="15.892195388012">
        <ele>148.6</ele>
        <time>2016-01-21T20:41:32Z</time>
      </trkpt>
      <trkpt lat="60.078543891361" lon="15.89231876958">
        <ele>147.2</ele>
        <time>2016-01-21T20:41:33Z</time>
      </trkpt>
      <trkpt lat="60.078545148646" lon="15.892443324614">
        <ele>145.6</ele>
        <time>2016-01-21T20:41:34Z</time>
      </trkpt>
      <trkpt lat="60.078544729551" lon="15.892564443069">
        <ele>144</ele>
        <time>2016-01-21T20:41:35Z</time>
      </trkpt>
      <trkpt lat="60.078564594654" lon="15.892662678937">
        <ele>142.4</ele>
        <time>2016-01-21T20:41:36Z</time>
      </trkpt>
      <trkpt lat="60.078589656535" lon="15.892762507366">
        <ele>140.8</ele>
        <time>2016-01-21T20:41:37Z</time>
      </trkpt>
      <trkpt lat="60.07860600124" lon="15.89288370964">
        <ele>139.4</ele>
        <time>2016-01-21T20:41:38Z</time>
      </trkpt>
      <trkpt lat="60.078641624315" lon="15.893000385688">
        <ele>137.6</ele>
        <time>2016-01-21T20:41:39Z</time>
      </trkpt>
      <trkpt lat="60.078670122775" lon="15.893119995401">
        <ele>135.6</ele>
        <time>2016-01-21T20:41:40Z</time>
      </trkpt>
      <trkpt lat="60.078702225452" lon="15.893227283721">
        <ele>133.8</ele>
        <time>2016-01-21T20:41:41Z</time>
      </trkpt>
      <trkpt lat="60.078744973142" lon="15.893326525417">
        <ele>131.8</ele>
        <time>2016-01-21T20:41:42Z</time>
      </trkpt>
      <trkpt lat="60.07878788847" lon="15.893408500399">
        <ele>130</ele>
        <time>2016-01-21T20:41:43Z</time>
      </trkpt>
      <trkpt lat="60.078838012232" lon="15.89345786979">
        <ele>128.4</ele>
        <time>2016-01-21T20:41:44Z</time>
      </trkpt>
      <trkpt lat="60.078897775179" lon="15.893474885047">
        <ele>127</ele>
        <time>2016-01-21T20:41:45Z</time>
      </trkpt>
      <trkpt lat="60.079008164802" lon="15.893473627762">
        <ele>125.6</ele>
        <time>2016-01-21T20:41:47Z</time>
      </trkpt>
      <trkpt lat="60.079213102257" lon="15.893473543943">
        <ele>124.6</ele>
        <time>2016-01-21T20:41:53Z</time>
      </trkpt>
      <trkpt lat="60.079512336087" lon="15.893264834633">
        <ele>124.6</ele>
        <time>2016-01-21T20:42:11Z</time>
      </trkpt>
      <trkpt lat="60.07820450823" lon="15.890624536133">
        <ele>180.4</ele>
        <time>2016-01-21T20:47:19Z</time>
      </trkpt>
      <trkpt lat="60.078237449097" lon="15.890716904671">
        <ele>178.8</ele>
        <time>2016-01-21T20:47:20Z</time>
      </trkpt>
      <trkpt lat="60.078269384136" lon="15.890806255725">
        <ele>177.6</ele>
        <time>2016-01-21T20:47:21Z</time>
      </trkpt>
      <trkpt lat="60.078300229528" lon="15.890915136606">
        <ele>176</ele>
        <time>2016-01-21T20:47:22Z</time>
      </trkpt>
      <trkpt lat="60.078316658052" lon="15.891032818482">
        <ele>174.4</ele>
        <time>2016-01-21T20:47:23Z</time>
      </trkpt>
      <trkpt lat="60.078339037725" lon="15.891142286096">
        <ele>172.8</ele>
        <time>2016-01-21T20:47:24Z</time>
      </trkpt>
      <trkpt lat="60.078385138175" lon="15.891239516136">
        <ele>170.8</ele>
        <time>2016-01-21T20:47:25Z</time>
      </trkpt>
      <trkpt lat="60.078416486481" lon="15.891347810284">
        <ele>168.8</ele>
        <time>2016-01-21T20:47:26Z</time>
      </trkpt>
      <trkpt lat="60.078422521449" lon="15.891463312866">
        <ele>166.8</ele>
        <time>2016-01-21T20:47:27Z</time>
      </trkpt>
      <trkpt lat="60.078451606642" lon="15.891572361385">
        <ele>164.6</ele>
        <time>2016-01-21T20:47:28Z</time>
      </trkpt>
      <trkpt lat="60.078480021283" lon="15.891685265578">
        <ele>161.8</ele>
        <time>2016-01-21T20:47:29Z</time>
      </trkpt>
      <trkpt lat="60.078155138839" lon="15.890580698796">
        <ele>182</ele>
        <time>2016-01-21T20:57:40Z</time>
      </trkpt>
      <trkpt lat="60.078188498801" lon="15.890684969632">
        <ele>180.2</ele>
        <time>2016-01-21T20:57:41Z</time>
      </trkpt>
      <trkpt lat="60.078217416356" lon="15.890785468613">
        <ele>178.8</ele>
        <time>2016-01-21T20:57:42Z</time>
      </trkpt>
      <trkpt lat="60.078240382762" lon="15.890892421657">
        <ele>177.4</ele>
        <time>2016-01-21T20:57:43Z</time>
      </trkpt>
      <trkpt lat="60.078265277005" lon="15.891005744945">
        <ele>175.6</ele>
        <time>2016-01-21T20:57:44Z</time>
      </trkpt>
      <trkpt lat="60.07828497447" lon="15.891127617771">
        <ele>173.6</ele>
        <time>2016-01-21T20:57:45Z</time>
      </trkpt>
      <trkpt lat="60.078317915337" lon="15.891234822272">
        <ele>171.2</ele>
        <time>2016-01-21T20:57:46Z</time>
      </trkpt>
      <trkpt lat="60.078348341634" lon="15.891351917415">
        <ele>169.2</ele>
        <time>2016-01-21T20:57:47Z</time>
      </trkpt>
      <trkpt lat="60.078352281127" lon="15.891487452738">
        <ele>167.4</ele>
        <time>2016-01-21T20:57:48Z</time>
      </trkpt>
      <trkpt lat="60.07836711709" lon="15.891612343048">
        <ele>165.2</ele>
        <time>2016-01-21T20:57:49Z</time>
      </trkpt>
      <trkpt lat="60.078394442084" lon="15.891729857286">
        <ele>162.4</ele>
        <time>2016-01-21T20:57:50Z</time>
      </trkpt>
      <trkpt lat="60.078413971911" lon="15.891845946601">
        <ele>159.6</ele>
        <time>2016-01-21T20:57:51Z</time>
      </trkpt>
      <trkpt lat="60.078432412091" lon="15.891934710922">
        <ele>156.8</ele>
        <time>2016-01-21T20:57:52Z</time>
      </trkpt>
      <trkpt lat="60.078443895294" lon="15.892000508837">
        <ele>154.2</ele>
        <time>2016-01-21T20:57:53Z</time>
      </trkpt>
      <trkpt lat="60.078438279421" lon="15.892076029756">
        <ele>152</ele>
        <time>2016-01-21T20:57:54Z</time>
      </trkpt>
      <trkpt lat="60.078441967457" lon="15.89217376271">
        <ele>150.4</ele>
        <time>2016-01-21T20:57:55Z</time>
      </trkpt>
      <trkpt lat="60.078462251655" lon="15.892285996351">
        <ele>149.4</ele>
        <time>2016-01-21T20:57:56Z</time>
      </trkpt>
      <trkpt lat="60.078470465917" lon="15.892407701539">
        <ele>148.2</ele>
        <time>2016-01-21T20:57:57Z</time>
      </trkpt>
      <trkpt lat="60.078479099274" lon="15.89252999346">
        <ele>146.6</ele>
        <time>2016-01-21T20:57:58Z</time>
      </trkpt>
      <trkpt lat="60.07848614007" lon="15.892650776639">
        <ele>144.8</ele>
        <time>2016-01-21T20:57:59Z</time>
      </trkpt>
      <trkpt lat="60.078506759544" lon="15.892759406063">
        <ele>143.2</ele>
        <time>2016-01-21T20:58:00Z</time>
      </trkpt>
      <trkpt lat="60.078533665443" lon="15.892875998292">
        <ele>141.8</ele>
        <time>2016-01-21T20:58:01Z</time>
      </trkpt>
      <trkpt lat="60.078554368736" lon="15.892991333236">
        <ele>140.4</ele>
        <time>2016-01-21T20:58:02Z</time>
      </trkpt>
      <trkpt lat="60.078586052318" lon="15.893108176922">
        <ele>138.6</ele>
        <time>2016-01-21T20:58:03Z</time>
      </trkpt>
      <trkpt lat="60.078619999013" lon="15.893221081115">
        <ele>136.6</ele>
        <time>2016-01-21T20:58:04Z</time>
      </trkpt>
      <trkpt lat="60.078658052839" lon="15.893325938684">
        <ele>135</ele>
        <time>2016-01-21T20:58:05Z</time>
      </trkpt>
      <trkpt lat="60.078703147461" lon="15.893410763512">
        <ele>133</ele>
        <time>2016-01-21T20:58:06Z</time>
      </trkpt>
      <trkpt lat="60.078749499368" lon="15.893487541716">
        <ele>131</ele>
        <time>2016-01-21T20:58:07Z</time>
      </trkpt>
      <trkpt lat="60.078807585935" lon="15.893528361569">
        <ele>129.2</ele>
        <time>2016-01-21T20:58:08Z</time>
      </trkpt>
      <trkpt lat="60.078870953099" lon="15.893539844772">
        <ele>127.8</ele>
        <time>2016-01-21T20:58:09Z</time>
      </trkpt>
      <trkpt lat="60.078986288043" lon="15.893536492012">
        <ele>126.6</ele>
        <time>2016-01-21T20:58:11Z</time>
      </trkpt>
      <trkpt lat="60.07921201261" lon="15.89351989585">
        <ele>125.6</ele>
        <time>2016-01-21T20:58:17Z</time>
      </trkpt>
      <trkpt lat="60.079515940304" lon="15.893261565692">
        <ele>125.4</ele>
        <time>2016-01-21T20:58:37Z</time>
      </trkpt>
      <trkpt lat="60.078049359261" lon="15.890343239569">
        <ele>179.8</ele>
        <time>2016-01-21T21:00:26Z</time>
      </trkpt>
      <trkpt lat="60.078004097001" lon="15.890275597636">
        <ele>180.6</ele>
        <time>2016-01-21T21:00:34Z</time>
      </trkpt>
      <trkpt lat="60.078196377787" lon="15.890778092541">
        <ele>181.2</ele>
        <time>2016-01-21T21:01:47Z</time>
      </trkpt>
      <trkpt lat="60.078219847107" lon="15.890901557928">
        <ele>179.4</ele>
        <time>2016-01-21T21:01:48Z</time>
      </trkpt>
      <trkpt lat="60.078247423558" lon="15.891016473777">
        <ele>177.4</ele>
        <time>2016-01-21T21:01:49Z</time>
      </trkpt>
      <trkpt lat="60.078263684444" lon="15.891124600287">
        <ele>175.4</ele>
        <time>2016-01-21T21:01:50Z</time>
      </trkpt>
      <trkpt lat="60.078290171248" lon="15.891231385693">
        <ele>173.2</ele>
        <time>2016-01-21T21:01:51Z</time>
      </trkpt>
      <trkpt lat="60.07832101664" lon="15.89135485108">
        <ele>171</ele>
        <time>2016-01-21T21:01:52Z</time>
      </trkpt>
      <trkpt lat="60.078323782667" lon="15.891484351435">
        <ele>168.6</ele>
        <time>2016-01-21T21:01:53Z</time>
      </trkpt>
      <trkpt lat="60.078315736043" lon="15.891607230089">
        <ele>166.4</ele>
        <time>2016-01-21T21:01:54Z</time>
      </trkpt>
      <trkpt lat="60.078335098232" lon="15.891729773467">
        <ele>163.8</ele>
        <time>2016-01-21T21:01:55Z</time>
      </trkpt>
      <trkpt lat="60.078060674826" lon="15.890310382521">
        <ele>179.2</ele>
        <time>2016-01-21T21:04:34Z</time>
      </trkpt>
      <trkpt lat="60.078030416167" lon="15.890294373092">
        <ele>179.2</ele>
        <time>2016-01-21T21:04:37Z</time>
      </trkpt>
      <trkpt lat="60.078207106619" lon="15.890716904671">
        <ele>179.4</ele>
        <time>2016-01-21T21:05:14Z</time>
      </trkpt>
      <trkpt lat="60.078237700554" lon="15.890828803036">
        <ele>177.6</ele>
        <time>2016-01-21T21:05:15Z</time>
      </trkpt>
      <trkpt lat="60.078269719412" lon="15.890933660605">
        <ele>176</ele>
        <time>2016-01-21T21:05:16Z</time>
      </trkpt>
      <trkpt lat="60.078279274778" lon="15.891057880363">
        <ele>174.2</ele>
        <time>2016-01-21T21:05:17Z</time>
      </trkpt>
      <trkpt lat="60.078301654451" lon="15.891172041841">
        <ele>172.4</ele>
        <time>2016-01-21T21:05:18Z</time>
      </trkpt>
      <trkpt lat="60.078340211191" lon="15.891267763139">
        <ele>170</ele>
        <time>2016-01-21T21:05:19Z</time>
      </trkpt>
      <trkpt lat="60.078347084349" lon="15.891384690644">
        <ele>167.8</ele>
        <time>2016-01-21T21:05:20Z</time>
      </trkpt>
      <trkpt lat="60.078346749073" lon="15.891505138547">
        <ele>166</ele>
        <time>2016-01-21T21:05:21Z</time>
      </trkpt>
      <trkpt lat="60.078368961108" lon="15.891620473491">
        <ele>163.8</ele>
        <time>2016-01-21T21:05:22Z</time>
      </trkpt>
      <trkpt lat="60.07839729193" lon="15.891743268326">
        <ele>161</ele>
        <time>2016-01-21T21:05:23Z</time>
      </trkpt>
      <trkpt lat="60.078419420146" lon="15.891874109785">
        <ele>158.6</ele>
        <time>2016-01-21T21:05:24Z</time>
      </trkpt>
      <trkpt lat="60.078441799819" lon="15.891987097797">
        <ele>156</ele>
        <time>2016-01-21T21:05:25Z</time>
      </trkpt>
      <trkpt lat="60.078449762624" lon="15.892094553755">
        <ele>153</ele>
        <time>2016-01-21T21:05:26Z</time>
      </trkpt>
      <trkpt lat="60.078462838388" lon="15.8922081285">
        <ele>150.4</ele>
        <time>2016-01-21T21:05:27Z</time>
      </trkpt>
      <trkpt lat="60.078478177265" lon="15.892337461217">
        <ele>148.6</ele>
        <time>2016-01-21T21:05:28Z</time>
      </trkpt>
      <trkpt lat="60.078486726803" lon="15.892468637952">
        <ele>147.2</ele>
        <time>2016-01-21T21:05:29Z</time>
      </trkpt>
      <trkpt lat="60.078494857246" lon="15.892591768063">
        <ele>145.2</ele>
        <time>2016-01-21T21:05:30Z</time>
      </trkpt>
      <trkpt lat="60.078501562766" lon="15.892705845722">
        <ele>143.2</ele>
        <time>2016-01-21T21:05:31Z</time>
      </trkpt>
      <trkpt lat="60.078520422041" lon="15.892804500685">
        <ele>141.8</ele>
        <time>2016-01-21T21:05:32Z</time>
      </trkpt>
      <trkpt lat="60.078539616592" lon="15.892912878652">
        <ele>140.2</ele>
        <time>2016-01-21T21:05:33Z</time>
      </trkpt>
      <trkpt lat="60.078559565514" lon="15.893017149488">
        <ele>138.8</ele>
        <time>2016-01-21T21:05:34Z</time>
      </trkpt>
      <trkpt lat="60.078585633223" lon="15.893117145555">
        <ele>137.2</ele>
        <time>2016-01-21T21:05:35Z</time>
      </trkpt>
      <trkpt lat="60.078617819719" lon="15.893230552662">
        <ele>135.4</ele>
        <time>2016-01-21T21:05:36Z</time>
      </trkpt>
      <trkpt lat="60.078659058667" lon="15.893337505706">
        <ele>133.6</ele>
        <time>2016-01-21T21:05:37Z</time>
      </trkpt>
      <trkpt lat="60.078708930972" lon="15.893434903384">
        <ele>131.8</ele>
        <time>2016-01-21T21:05:38Z</time>
      </trkpt>
      <trkpt lat="60.078760898752" lon="15.893511933045">
        <ele>130</ele>
        <time>2016-01-21T21:05:39Z</time>
      </trkpt>
      <trkpt lat="60.078819655871" lon="15.893553591088">
        <ele>128.4</ele>
        <time>2016-01-21T21:05:40Z</time>
      </trkpt>
      <trkpt lat="60.078880843741" lon="15.893556440934">
        <ele>127.2</ele>
        <time>2016-01-21T21:05:41Z</time>
      </trkpt>
      <trkpt lat="60.078985449853" lon="15.893541856428">
        <ele>125.8</ele>
        <time>2016-01-21T21:05:43Z</time>
      </trkpt>
      <trkpt lat="60.079141353193" lon="15.893534815632">
        <ele>124.6</ele>
        <time>2016-01-21T21:05:47Z</time>
      </trkpt>
      <trkpt lat="60.079513090458" lon="15.893298110776">
        <ele>124.4</ele>
        <time>2016-01-21T21:06:05Z</time>
      </trkpt>
      <trkpt lat="60.078343312494" lon="15.89135736565">
        <ele>159.4</ele>
        <time>2016-01-21T21:09:30Z</time>
      </trkpt>
      <trkpt lat="60.07835454424" lon="15.891528021134">
        <ele>158.6</ele>
        <time>2016-01-21T21:09:32Z</time>
      </trkpt>
      <trkpt lat="60.078387066012" lon="15.891639165128">
        <ele>157.6</ele>
        <time>2016-01-21T21:09:33Z</time>
      </trkpt>
      <trkpt lat="60.078413385178" lon="15.891770258044">
        <ele>156.4</ele>
        <time>2016-01-21T21:09:34Z</time>
      </trkpt>
      <trkpt lat="60.078436854498" lon="15.891887856101">
        <ele>154.6</ele>
        <time>2016-01-21T21:09:35Z</time>
      </trkpt>
      <trkpt lat="60.078455294678" lon="15.891999000095">
        <ele>152.4</ele>
        <time>2016-01-21T21:09:36Z</time>
      </trkpt>
      <trkpt lat="60.078073080038" lon="15.890408366932">
        <ele>178</ele>
        <time>2016-01-21T21:12:28Z</time>
      </trkpt>
      <trkpt lat="60.078121611239" lon="15.89052169022">
        <ele>177.4</ele>
        <time>2016-01-21T21:12:31Z</time>
      </trkpt>
      <trkpt lat="60.078128819673" lon="15.890572484534">
        <ele>177</ele>
        <time>2016-01-21T21:12:32Z</time>
      </trkpt>
      <trkpt lat="60.078150193518" lon="15.890618668803">
        <ele>176.4</ele>
        <time>2016-01-21T21:12:33Z</time>
      </trkpt>
      <trkpt lat="60.078172070277" lon="15.890662170864">
        <ele>176</ele>
        <time>2016-01-21T21:12:34Z</time>
      </trkpt>
      <trkpt lat="60.07819193538" lon="15.890723023458">
        <ele>175.2</ele>
        <time>2016-01-21T21:12:35Z</time>
      </trkpt>
      <trkpt lat="60.078194114674" lon="15.890796700359">
        <ele>174.2</ele>
        <time>2016-01-21T21:12:36Z</time>
      </trkpt>
      <trkpt lat="60.078200568737" lon="15.89086199536">
        <ele>173.2</ele>
        <time>2016-01-21T21:12:37Z</time>
      </trkpt>
      <trkpt lat="60.078220266202" lon="15.890906670887">
        <ele>172</ele>
        <time>2016-01-21T21:12:38Z</time>
      </trkpt>
      <trkpt lat="60.078247172101" lon="15.890924524334">
        <ele>171.2</ele>
        <time>2016-01-21T21:12:39Z</time>
      </trkpt>
      <trkpt lat="60.078275083828" lon="15.890930307845">
        <ele>170.2</ele>
        <time>2016-01-21T21:12:40Z</time>
      </trkpt>
      <trkpt lat="60.078289249239" lon="15.890962661979">
        <ele>169.4</ele>
        <time>2016-01-21T21:12:41Z</time>
      </trkpt>
      <trkpt lat="60.078289919791" lon="15.891000715805">
        <ele>168.4</ele>
        <time>2016-01-21T21:12:42Z</time>
      </trkpt>
      <trkpt lat="60.078275838199" lon="15.891014462121">
        <ele>166.8</ele>
        <time>2016-01-21T21:12:44Z</time>
      </trkpt>
      <trkpt lat="60.078266618109" lon="15.891010522628">
        <ele>165.6</ele>
        <time>2016-01-21T21:12:46Z</time>
      </trkpt>
      <trkpt lat="60.078249016119" lon="15.891081684959">
        <ele>165</ele>
        <time>2016-01-21T21:12:52Z</time>
      </trkpt>
      <trkpt lat="60.07826066696" lon="15.891162402656">
        <ele>164.8</ele>
        <time>2016-01-21T21:12:54Z</time>
      </trkpt>
      <trkpt lat="60.078273742724" lon="15.891169359633">
        <ele>164.4</ele>
        <time>2016-01-21T21:12:55Z</time>
      </trkpt>
      <trkpt lat="60.078278185131" lon="15.891165755416">
        <ele>163.2</ele>
        <time>2016-01-21T21:12:57Z</time>
      </trkpt>
      <trkpt lat="60.078287908135" lon="15.891173550583">
        <ele>162.2</ele>
        <time>2016-01-21T21:13:02Z</time>
      </trkpt>
      <trkpt lat="60.078408691314" lon="15.891397012037">
        <ele>157.4</ele>
        <time>2016-01-21T21:13:38Z</time>
      </trkpt>
      <trkpt lat="60.07842998134" lon="15.891421738642">
        <ele>157.2</ele>
        <time>2016-01-21T21:13:39Z</time>
      </trkpt>
      <trkpt lat="60.078482871129" lon="15.89151494537">
        <ele>156.8</ele>
        <time>2016-01-21T21:13:41Z</time>
      </trkpt>
      <trkpt lat="60.078498293825" lon="15.891588454633">
        <ele>156.4</ele>
        <time>2016-01-21T21:13:42Z</time>
      </trkpt>
      <trkpt lat="60.078522936611" lon="15.891747207819">
        <ele>154.8</ele>
        <time>2016-01-21T21:13:44Z</time>
      </trkpt>
      <trkpt lat="60.078489828106" lon="15.891857681261">
        <ele>152.8</ele>
        <time>2016-01-21T21:13:46Z</time>
      </trkpt>
      <trkpt lat="60.078468454261" lon="15.891889364843">
        <ele>151.6</ele>
        <time>2016-01-21T21:13:47Z</time>
      </trkpt>
      <trkpt lat="60.078461162008" lon="15.891906883014">
        <ele>150.4</ele>
        <time>2016-01-21T21:13:48Z</time>
      </trkpt>
      <trkpt lat="60.078458144524" lon="15.891917779484">
        <ele>148.8</ele>
        <time>2016-01-21T21:13:50Z</time>
      </trkpt>
      <trkpt lat="60.078438111783" lon="15.891990785833">
        <ele>147.4</ele>
        <time>2016-01-21T21:14:10Z</time>
      </trkpt>
      <trkpt lat="60.078437105955" lon="15.892043424165">
        <ele>147.2</ele>
        <time>2016-01-21T21:14:11Z</time>
      </trkpt>
      <trkpt lat="60.07846602351" lon="15.892047279839">
        <ele>145.8</ele>
        <time>2016-01-21T21:14:14Z</time>
      </trkpt>
      <trkpt lat="60.078465772053" lon="15.892039065577">
        <ele>145.4</ele>
        <time>2016-01-21T21:14:15Z</time>
      </trkpt>
      <trkpt lat="60.078547998492" lon="15.892403342951">
        <ele>141</ele>
        <time>2016-01-21T21:15:13Z</time>
      </trkpt>
      <trkpt lat="60.078564510835" lon="15.892522785026">
        <ele>140.6</ele>
        <time>2016-01-21T21:15:15Z</time>
      </trkpt>
      <trkpt lat="60.078527295199" lon="15.892650944277">
        <ele>139.4</ele>
        <time>2016-01-21T21:15:17Z</time>
      </trkpt>
      <trkpt lat="60.078511621046" lon="15.892684304239">
        <ele>138.6</ele>
        <time>2016-01-21T21:15:18Z</time>
      </trkpt>
      <trkpt lat="60.078501143671" lon="15.892693691967">
        <ele>137.8</ele>
        <time>2016-01-21T21:15:19Z</time>
      </trkpt>
      <trkpt lat="60.078487984088" lon="15.892686148257">
        <ele>136.6</ele>
        <time>2016-01-21T21:15:21Z</time>
      </trkpt>
      <trkpt lat="60.078484128414" lon="15.892688746646">
        <ele>136.4</ele>
        <time>2016-01-21T21:15:22Z</time>
      </trkpt>
      <trkpt lat="60.078577083685" lon="15.892933246669">
        <ele>132.8</ele>
        <time>2016-01-21T21:15:47Z</time>
      </trkpt>
      <trkpt lat="60.078621004841" lon="15.893032488365">
        <ele>132.2</ele>
        <time>2016-01-21T21:15:49Z</time>
      </trkpt>
      <trkpt lat="60.078614886054" lon="15.893076996254">
        <ele>131.6</ele>
        <time>2016-01-21T21:15:50Z</time>
      </trkpt>
      <trkpt lat="60.078607258525" lon="15.893101890497">
        <ele>130</ele>
        <time>2016-01-21T21:15:52Z</time>
      </trkpt>
      <trkpt lat="60.07860516305" lon="15.89313432845">
        <ele>128</ele>
        <time>2016-01-21T21:16:32Z</time>
      </trkpt>
      <trkpt lat="60.078675235734" lon="15.893234324517">
        <ele>127</ele>
        <time>2016-01-21T21:16:36Z</time>
      </trkpt>
      <trkpt lat="60.078728041704" lon="15.893300876803">
        <ele>125.6</ele>
        <time>2016-01-21T21:16:39Z</time>
      </trkpt>
      <trkpt lat="60.078796605646" lon="15.893383522337">
        <ele>124.4</ele>
        <time>2016-01-21T21:16:42Z</time>
      </trkpt>
      <trkpt lat="60.078850165987" lon="15.893432388814">
        <ele>123.2</ele>
        <time>2016-01-21T21:16:45Z</time>
      </trkpt>
      <trkpt lat="60.078870785461" lon="15.893466922242">
        <ele>122.8</ele>
        <time>2016-01-21T21:16:47Z</time>
      </trkpt>
      <trkpt lat="60.079108747602" lon="15.893588711249">
        <ele>122.2</ele>
        <time>2016-01-21T21:17:00Z</time>
      </trkpt>
      <trkpt lat="60.079330113581" lon="15.893535486184">
        <ele>122.4</ele>
        <time>2016-01-21T21:17:11Z</time>
      </trkpt>
      <trkpt lat="60.079364395552" lon="15.893487541716">
        <ele>122.6</ele>
        <time>2016-01-21T21:17:19Z</time>
      </trkpt>
    </trkseg>
  </trk>
</gpx>